sensor_id;sensor_type;location;lat;lon;timestamp;P1;durP1;ratioP1;P2;durP2;ratioP2
53857;SDS011;39763;51.188;6.690;2022-11-21T00:01:27;16.60;;;5.32;;
53857;SDS011;39763;51.188;6.690;2022-11-21T00:02:59;17.42;;;5.35;;
53857;SDS011;39763;51.188;6.690;2022-11-21T00:04:32;17.63;;;4.75;;
53857;SDS011;39763;51.188;6.690;2022-11-21T00:06:05;17.02;;;5.05;;
53857;SDS011;39763;51.188;6.690;2022-11-21T00:07:37;16.48;;;5.38;;
53857;SDS011;39763;51.188;6.690;2022-11-21T00:09:08;15.60;;;5.10;;
53857;SDS011;39763;51.188;6.690;2022-11-21T00:10:40;14.10;;;4.95;;
53857;SDS011;39763;51.188;6.690;2022-11-21T00:12:13;17.63;;;5.18;;
53857;SDS011;39763;51.188;6.690;2022-11-21T00:13:47;21.55;;;5.57;;
53857;SDS011;39763;51.188;6.690;2022-11-21T00:15:19;16.73;;;5.25;;
53857;SDS011;39763;51.188;6.690;2022-11-21T00:16:52;20.83;;;6.05;;
53857;SDS011;39763;51.188;6.690;2022-11-21T00:18:27;17.83;;;5.80;;
53857;SDS011;39763;51.188;6.690;2022-11-21T00:19:59;17.98;;;5.25;;
53857;SDS011;39763;51.188;6.690;2022-11-21T00:21:31;16.63;;;5.18;;
53857;SDS011;39763;51.188;6.690;2022-11-21T00:23:02;19.00;;;6.25;;
53857;SDS011;39763;51.188;6.690;2022-11-21T00:24:34;16.20;;;4.85;;
53857;SDS011;39763;51.188;6.690;2022-11-21T00:26:07;16.83;;;6.18;;
53857;SDS011;39763;51.188;6.690;2022-11-21T00:27:39;17.58;;;4.88;;
53857;SDS011;39763;51.188;6.690;2022-11-21T00:29:11;14.40;;;5.45;;
53857;SDS011;39763;51.188;6.690;2022-11-21T00:30:44;16.90;;;5.50;;
53857;SDS011;39763;51.188;6.690;2022-11-21T00:32:18;20.08;;;6.03;;
53857;SDS011;39763;51.188;6.690;2022-11-21T00:33:51;17.13;;;5.68;;
53857;SDS011;39763;51.188;6.690;2022-11-21T00:35:23;20.30;;;5.57;;
53857;SDS011;39763;51.188;6.690;2022-11-21T00:36:54;19.15;;;4.93;;
53857;SDS011;39763;51.188;6.690;2022-11-21T00:38:26;20.67;;;5.80;;
53857;SDS011;39763;51.188;6.690;2022-11-21T00:39:57;18.15;;;5.35;;
53857;SDS011;39763;51.188;6.690;2022-11-21T00:41:29;17.13;;;4.88;;
53857;SDS011;39763;51.188;6.690;2022-11-21T00:43:01;17.75;;;5.70;;
53857;SDS011;39763;51.188;6.690;2022-11-21T00:44:33;21.00;;;5.30;;
53857;SDS011;39763;51.188;6.690;2022-11-21T00:46:04;22.20;;;5.55;;
53857;SDS011;39763;51.188;6.690;2022-11-21T00:47:38;18.15;;;6.03;;
53857;SDS011;39763;51.188;6.690;2022-11-21T00:49:09;21.58;;;5.70;;
53857;SDS011;39763;51.188;6.690;2022-11-21T00:50:41;20.38;;;6.07;;
53857;SDS011;39763;51.188;6.690;2022-11-21T00:52:13;18.10;;;5.53;;
53857;SDS011;39763;51.188;6.690;2022-11-21T00:53:45;18.20;;;5.68;;
53857;SDS011;39763;51.188;6.690;2022-11-21T00:55:16;17.35;;;5.88;;
53857;SDS011;39763;51.188;6.690;2022-11-21T00:56:48;20.95;;;6.13;;
53857;SDS011;39763;51.188;6.690;2022-11-21T00:58:21;19.15;;;5.35;;
53857;SDS011;39763;51.188;6.690;2022-11-21T00:59:53;19.10;;;5.88;;
53857;SDS011;39763;51.188;6.690;2022-11-21T01:01:25;17.13;;;6.38;;
53857;SDS011;39763;51.188;6.690;2022-11-21T01:02:58;17.20;;;5.65;;
53857;SDS011;39763;51.188;6.690;2022-11-21T01:04:31;19.75;;;6.43;;
53857;SDS011;39763;51.188;6.690;2022-11-21T01:06:05;18.80;;;6.45;;
53857;SDS011;39763;51.188;6.690;2022-11-21T01:07:38;18.27;;;7.88;;
53857;SDS011;39763;51.188;6.690;2022-11-21T01:09:10;19.17;;;7.65;;
53857;SDS011;39763;51.188;6.690;2022-11-21T01:10:41;18.33;;;7.38;;
53857;SDS011;39763;51.188;6.690;2022-11-21T01:12:13;24.75;;;9.15;;
53857;SDS011;39763;51.188;6.690;2022-11-21T01:13:45;19.83;;;7.82;;
53857;SDS011;39763;51.188;6.690;2022-11-21T01:15:17;17.95;;;8.10;;
53857;SDS011;39763;51.188;6.690;2022-11-21T01:16:49;22.90;;;8.60;;
53857;SDS011;39763;51.188;6.690;2022-11-21T01:18:22;19.67;;;8.43;;
53857;SDS011;39763;51.188;6.690;2022-11-21T01:19:54;19.70;;;8.07;;
53857;SDS011;39763;51.188;6.690;2022-11-21T01:21:26;28.27;;;8.85;;
53857;SDS011;39763;51.188;6.690;2022-11-21T01:22:59;24.83;;;10.15;;
53857;SDS011;39763;51.188;6.690;2022-11-21T01:24:32;24.05;;;11.63;;
53857;SDS011;39763;51.188;6.690;2022-11-21T01:26:04;27.23;;;13.07;;
53857;SDS011;39763;51.188;6.690;2022-11-21T01:27:38;29.67;;;14.43;;
53857;SDS011;39763;51.188;6.690;2022-11-21T01:29:09;27.85;;;15.40;;
53857;SDS011;39763;51.188;6.690;2022-11-21T01:30:41;30.83;;;15.63;;
53857;SDS011;39763;51.188;6.690;2022-11-21T01:32:13;28.70;;;14.93;;
53857;SDS011;39763;51.188;6.690;2022-11-21T01:33:46;31.33;;;16.42;;
53857;SDS011;39763;51.188;6.690;2022-11-21T01:35:18;32.45;;;15.48;;
53857;SDS011;39763;51.188;6.690;2022-11-21T01:36:50;28.67;;;15.32;;
53857;SDS011;39763;51.188;6.690;2022-11-21T01:38:21;29.38;;;15.48;;
53857;SDS011;39763;51.188;6.690;2022-11-21T01:39:53;30.85;;;17.17;;
53857;SDS011;39763;51.188;6.690;2022-11-21T01:41:26;32.00;;;17.00;;
53857;SDS011;39763;51.188;6.690;2022-11-21T01:43:08;34.63;;;18.13;;
53857;SDS011;39763;51.188;6.690;2022-11-21T01:46:20;32.25;;;16.67;;
53857;SDS011;39763;51.188;6.690;2022-11-21T01:47:52;31.17;;;17.52;;
53857;SDS011;39763;51.188;6.690;2022-11-21T01:49:26;37.42;;;18.38;;
53857;SDS011;39763;51.188;6.690;2022-11-21T01:51:02;36.10;;;17.88;;
53857;SDS011;39763;51.188;6.690;2022-11-21T01:52:38;36.80;;;18.08;;
53857;SDS011;39763;51.188;6.690;2022-11-21T01:54:11;35.50;;;18.77;;
53857;SDS011;39763;51.188;6.690;2022-11-21T01:55:47;35.28;;;18.23;;
53857;SDS011;39763;51.188;6.690;2022-11-21T01:57:21;39.42;;;17.58;;
53857;SDS011;39763;51.188;6.690;2022-11-21T01:58:59;38.47;;;19.38;;
53857;SDS011;39763;51.188;6.690;2022-11-21T02:00:34;33.60;;;17.92;;
53857;SDS011;39763;51.188;6.690;2022-11-21T02:02:09;40.47;;;18.27;;
53857;SDS011;39763;51.188;6.690;2022-11-21T02:03:43;40.70;;;18.70;;
53857;SDS011;39763;51.188;6.690;2022-11-21T02:05:19;34.80;;;17.58;;
53857;SDS011;39763;51.188;6.690;2022-11-21T02:06:53;36.08;;;18.50;;
53857;SDS011;39763;51.188;6.690;2022-11-21T02:08:25;38.25;;;19.55;;
53857;SDS011;39763;51.188;6.690;2022-11-21T02:09:59;36.47;;;18.75;;
53857;SDS011;39763;51.188;6.690;2022-11-21T02:11:34;37.03;;;18.67;;
53857;SDS011;39763;51.188;6.690;2022-11-21T02:13:09;33.88;;;17.58;;
53857;SDS011;39763;51.188;6.690;2022-11-21T02:14:42;32.40;;;18.08;;
53857;SDS011;39763;51.188;6.690;2022-11-21T02:16:15;34.30;;;18.80;;
53857;SDS011;39763;51.188;6.690;2022-11-21T02:17:47;37.03;;;18.23;;
53857;SDS011;39763;51.188;6.690;2022-11-21T02:19:21;38.08;;;18.90;;
53857;SDS011;39763;51.188;6.690;2022-11-21T02:21:02;33.90;;;18.05;;
53857;SDS011;39763;51.188;6.690;2022-11-21T02:22:44;36.80;;;18.63;;
53857;SDS011;39763;51.188;6.690;2022-11-21T02:24:24;34.70;;;17.95;;
53857;SDS011;39763;51.188;6.690;2022-11-21T02:27:36;34.90;;;16.83;;
53857;SDS011;39763;51.188;6.690;2022-11-21T02:29:08;37.42;;;18.00;;
53857;SDS011;39763;51.188;6.690;2022-11-21T02:30:41;36.22;;;18.25;;
53857;SDS011;39763;51.188;6.690;2022-11-21T02:32:19;39.13;;;18.60;;
53857;SDS011;39763;51.188;6.690;2022-11-21T02:33:52;43.78;;;20.40;;
53857;SDS011;39763;51.188;6.690;2022-11-21T02:35:24;37.10;;;18.33;;
53857;SDS011;39763;51.188;6.690;2022-11-21T02:36:56;37.50;;;18.75;;
53857;SDS011;39763;51.188;6.690;2022-11-21T02:38:30;37.97;;;18.27;;
53857;SDS011;39763;51.188;6.690;2022-11-21T02:40:05;39.00;;;19.85;;
53857;SDS011;39763;51.188;6.690;2022-11-21T02:41:42;38.70;;;18.50;;
53857;SDS011;39763;51.188;6.690;2022-11-21T02:43:22;35.80;;;18.38;;
53857;SDS011;39763;51.188;6.690;2022-11-21T02:44:56;41.10;;;20.17;;
53857;SDS011;39763;51.188;6.690;2022-11-21T02:46:35;35.78;;;20.23;;
53857;SDS011;39763;51.188;6.690;2022-11-21T02:48:17;42.28;;;19.83;;
53857;SDS011;39763;51.188;6.690;2022-11-21T02:49:50;37.15;;;20.02;;
53857;SDS011;39763;51.188;6.690;2022-11-21T02:51:27;35.63;;;18.98;;
53857;SDS011;39763;51.188;6.690;2022-11-21T02:52:58;39.80;;;19.20;;
53857;SDS011;39763;51.188;6.690;2022-11-21T02:54:30;34.22;;;18.30;;
53857;SDS011;39763;51.188;6.690;2022-11-21T02:56:02;40.97;;;20.95;;
53857;SDS011;39763;51.188;6.690;2022-11-21T02:57:35;39.80;;;19.70;;
53857;SDS011;39763;51.188;6.690;2022-11-21T02:59:07;41.55;;;20.17;;
53857;SDS011;39763;51.188;6.690;2022-11-21T03:00:40;40.25;;;20.75;;
53857;SDS011;39763;51.188;6.690;2022-11-21T03:02:12;42.28;;;21.08;;
53857;SDS011;39763;51.188;6.690;2022-11-21T03:03:44;40.35;;;20.42;;
53857;SDS011;39763;51.188;6.690;2022-11-21T03:05:16;43.92;;;21.15;;
53857;SDS011;39763;51.188;6.690;2022-11-21T03:06:49;41.88;;;20.17;;
53857;SDS011;39763;51.188;6.690;2022-11-21T03:08:21;42.03;;;20.88;;
53857;SDS011;39763;51.188;6.690;2022-11-21T03:09:52;45.63;;;20.73;;
53857;SDS011;39763;51.188;6.690;2022-11-21T03:11:24;44.97;;;22.40;;
53857;SDS011;39763;51.188;6.690;2022-11-21T03:12:57;42.75;;;21.63;;
53857;SDS011;39763;51.188;6.690;2022-11-21T03:14:33;44.10;;;20.63;;
53857;SDS011;39763;51.188;6.690;2022-11-21T03:16:05;41.65;;;20.05;;
53857;SDS011;39763;51.188;6.690;2022-11-21T03:17:36;43.03;;;21.30;;
53857;SDS011;39763;51.188;6.690;2022-11-21T03:19:09;39.63;;;21.10;;
53857;SDS011;39763;51.188;6.690;2022-11-21T03:20:41;44.88;;;21.73;;
53857;SDS011;39763;51.188;6.690;2022-11-21T03:22:13;43.75;;;22.30;;
53857;SDS011;39763;51.188;6.690;2022-11-21T03:23:45;44.10;;;21.60;;
53857;SDS011;39763;51.188;6.690;2022-11-21T03:25:17;42.95;;;22.38;;
53857;SDS011;39763;51.188;6.690;2022-11-21T03:26:50;44.70;;;22.50;;
53857;SDS011;39763;51.188;6.690;2022-11-21T03:28:23;44.42;;;22.13;;
53857;SDS011;39763;51.188;6.690;2022-11-21T03:29:54;47.78;;;23.23;;
53857;SDS011;39763;51.188;6.690;2022-11-21T03:31:26;43.67;;;22.23;;
53857;SDS011;39763;51.188;6.690;2022-11-21T03:32:58;46.42;;;22.00;;
53857;SDS011;39763;51.188;6.690;2022-11-21T03:34:30;46.65;;;22.73;;
53857;SDS011;39763;51.188;6.690;2022-11-21T03:36:02;42.97;;;22.27;;
53857;SDS011;39763;51.188;6.690;2022-11-21T03:37:34;43.17;;;22.33;;
53857;SDS011;39763;51.188;6.690;2022-11-21T03:39:06;46.45;;;23.08;;
53857;SDS011;39763;51.188;6.690;2022-11-21T03:40:38;42.88;;;21.65;;
53857;SDS011;39763;51.188;6.690;2022-11-21T03:42:10;46.40;;;22.80;;
53857;SDS011;39763;51.188;6.690;2022-11-21T03:43:44;47.92;;;22.92;;
53857;SDS011;39763;51.188;6.690;2022-11-21T03:45:17;44.53;;;21.75;;
53857;SDS011;39763;51.188;6.690;2022-11-21T03:46:49;44.35;;;22.15;;
53857;SDS011;39763;51.188;6.690;2022-11-21T03:48:21;43.28;;;21.45;;
53857;SDS011;39763;51.188;6.690;2022-11-21T03:49:52;44.15;;;22.65;;
53857;SDS011;39763;51.188;6.690;2022-11-21T03:51:24;46.00;;;22.10;;
53857;SDS011;39763;51.188;6.690;2022-11-21T03:52:56;46.45;;;22.38;;
53857;SDS011;39763;51.188;6.690;2022-11-21T03:54:28;42.75;;;22.48;;
53857;SDS011;39763;51.188;6.690;2022-11-21T03:56:00;47.38;;;23.00;;
53857;SDS011;39763;51.188;6.690;2022-11-21T03:57:32;45.80;;;22.90;;
53857;SDS011;39763;51.188;6.690;2022-11-21T03:59:05;42.83;;;21.95;;
53857;SDS011;39763;51.188;6.690;2022-11-21T04:00:37;46.55;;;22.58;;
53857;SDS011;39763;51.188;6.690;2022-11-21T04:02:08;43.35;;;21.75;;
53857;SDS011;39763;51.188;6.690;2022-11-21T04:03:40;46.72;;;22.80;;
53857;SDS011;39763;51.188;6.690;2022-11-21T04:05:13;45.35;;;22.48;;
53857;SDS011;39763;51.188;6.690;2022-11-21T04:06:44;48.15;;;23.38;;
53857;SDS011;39763;51.188;6.690;2022-11-21T04:08:16;45.75;;;22.70;;
53857;SDS011;39763;51.188;6.690;2022-11-21T04:09:48;45.10;;;23.15;;
53857;SDS011;39763;51.188;6.690;2022-11-21T04:11:19;44.35;;;22.52;;
53857;SDS011;39763;51.188;6.690;2022-11-21T04:12:53;46.47;;;23.05;;
53857;SDS011;39763;51.188;6.690;2022-11-21T04:14:26;47.10;;;22.27;;
53857;SDS011;39763;51.188;6.690;2022-11-21T04:15:58;46.00;;;23.48;;
53857;SDS011;39763;51.188;6.690;2022-11-21T04:17:30;45.33;;;22.67;;
53857;SDS011;39763;51.188;6.690;2022-11-21T04:19:02;49.25;;;23.25;;
53857;SDS011;39763;51.188;6.690;2022-11-21T04:20:34;52.95;;;24.83;;
53857;SDS011;39763;51.188;6.690;2022-11-21T04:22:05;47.97;;;23.65;;
53857;SDS011;39763;51.188;6.690;2022-11-21T04:23:37;45.38;;;23.08;;
53857;SDS011;39763;51.188;6.690;2022-11-21T04:25:09;44.10;;;22.08;;
53857;SDS011;39763;51.188;6.690;2022-11-21T04:26:41;46.13;;;23.08;;
53857;SDS011;39763;51.188;6.690;2022-11-21T04:28:12;46.20;;;22.80;;
53857;SDS011;39763;51.188;6.690;2022-11-21T04:29:46;44.00;;;22.55;;
53857;SDS011;39763;51.188;6.690;2022-11-21T04:31:18;45.53;;;21.95;;
53857;SDS011;39763;51.188;6.690;2022-11-21T04:32:49;47.45;;;23.65;;
53857;SDS011;39763;51.188;6.690;2022-11-21T04:34:21;48.53;;;23.38;;
53857;SDS011;39763;51.188;6.690;2022-11-21T04:35:53;45.72;;;22.50;;
53857;SDS011;39763;51.188;6.690;2022-11-21T04:37:25;45.53;;;22.73;;
53857;SDS011;39763;51.188;6.690;2022-11-21T04:38:56;47.13;;;23.38;;
53857;SDS011;39763;51.188;6.690;2022-11-21T04:40:28;43.53;;;22.48;;
53857;SDS011;39763;51.188;6.690;2022-11-21T04:42:00;46.60;;;23.75;;
53857;SDS011;39763;51.188;6.690;2022-11-21T04:43:33;42.10;;;23.02;;
53857;SDS011;39763;51.188;6.690;2022-11-21T04:45:06;48.25;;;24.02;;
53857;SDS011;39763;51.188;6.690;2022-11-21T04:46:39;52.20;;;23.52;;
53857;SDS011;39763;51.188;6.690;2022-11-21T04:48:10;46.33;;;22.45;;
53857;SDS011;39763;51.188;6.690;2022-11-21T04:49:42;45.90;;;23.75;;
53857;SDS011;39763;51.188;6.690;2022-11-21T04:51:14;46.58;;;23.52;;
53857;SDS011;39763;51.188;6.690;2022-11-21T04:52:48;48.22;;;24.10;;
53857;SDS011;39763;51.188;6.690;2022-11-21T04:54:20;43.10;;;22.77;;
53857;SDS011;39763;51.188;6.690;2022-11-21T04:55:52;42.28;;;22.50;;
53857;SDS011;39763;51.188;6.690;2022-11-21T04:57:24;48.28;;;23.15;;
53857;SDS011;39763;51.188;6.690;2022-11-21T04:58:58;47.03;;;23.38;;
53857;SDS011;39763;51.188;6.690;2022-11-21T05:00:31;47.95;;;23.67;;
53857;SDS011;39763;51.188;6.690;2022-11-21T05:02:02;44.67;;;22.73;;
53857;SDS011;39763;51.188;6.690;2022-11-21T05:03:35;45.30;;;23.90;;
53857;SDS011;39763;51.188;6.690;2022-11-21T05:05:07;50.13;;;23.52;;
53857;SDS011;39763;51.188;6.690;2022-11-21T05:06:40;50.90;;;23.83;;
53857;SDS011;39763;51.188;6.690;2022-11-21T05:08:11;48.28;;;23.77;;
53857;SDS011;39763;51.188;6.690;2022-11-21T05:09:43;51.72;;;24.80;;
53857;SDS011;39763;51.188;6.690;2022-11-21T05:11:15;54.72;;;26.63;;
53857;SDS011;39763;51.188;6.690;2022-11-21T05:14:51;46.25;;;22.20;;
53857;SDS011;39763;51.188;6.690;2022-11-21T05:16:24;47.08;;;22.88;;
53857;SDS011;39763;51.188;6.690;2022-11-21T05:17:57;47.17;;;24.15;;
53857;SDS011;39763;51.188;6.690;2022-11-21T05:19:29;47.60;;;23.83;;
53857;SDS011;39763;51.188;6.690;2022-11-21T05:21:01;46.47;;;23.52;;
53857;SDS011;39763;51.188;6.690;2022-11-21T05:22:33;43.95;;;23.38;;
53857;SDS011;39763;51.188;6.690;2022-11-21T05:24:05;47.70;;;22.75;;
53857;SDS011;39763;51.188;6.690;2022-11-21T05:25:38;47.78;;;23.30;;
53857;SDS011;39763;51.188;6.690;2022-11-21T05:27:10;50.42;;;23.83;;
53857;SDS011;39763;51.188;6.690;2022-11-21T05:28:42;49.92;;;23.75;;
53857;SDS011;39763;51.188;6.690;2022-11-21T05:30:14;47.63;;;23.73;;
53857;SDS011;39763;51.188;6.690;2022-11-21T05:31:48;48.42;;;23.67;;
53857;SDS011;39763;51.188;6.690;2022-11-21T05:33:19;46.15;;;22.85;;
53857;SDS011;39763;51.188;6.690;2022-11-21T05:34:51;42.05;;;22.67;;
53857;SDS011;39763;51.188;6.690;2022-11-21T05:36:23;46.10;;;22.52;;
53857;SDS011;39763;51.188;6.690;2022-11-21T05:37:55;43.97;;;24.05;;
53857;SDS011;39763;51.188;6.690;2022-11-21T05:39:28;47.17;;;23.13;;
53857;SDS011;39763;51.188;6.690;2022-11-21T05:41:00;46.13;;;22.80;;
53857;SDS011;39763;51.188;6.690;2022-11-21T05:42:31;48.80;;;23.45;;
53857;SDS011;39763;51.188;6.690;2022-11-21T05:44:29;44.40;;;22.55;;
53857;SDS011;39763;51.188;6.690;2022-11-21T05:46:01;50.85;;;24.05;;
53857;SDS011;39763;51.188;6.690;2022-11-21T05:47:34;46.17;;;24.35;;
53857;SDS011;39763;51.188;6.690;2022-11-21T05:49:06;46.03;;;23.00;;
53857;SDS011;39763;51.188;6.690;2022-11-21T05:50:38;48.53;;;24.55;;
53857;SDS011;39763;51.188;6.690;2022-11-21T05:52:10;50.50;;;24.20;;
53857;SDS011;39763;51.188;6.690;2022-11-21T05:53:41;51.70;;;24.25;;
53857;SDS011;39763;51.188;6.690;2022-11-21T05:55:13;50.90;;;23.73;;
53857;SDS011;39763;51.188;6.690;2022-11-21T05:56:45;47.60;;;23.35;;
53857;SDS011;39763;51.188;6.690;2022-11-21T05:58:17;45.28;;;22.85;;
53857;SDS011;39763;51.188;6.690;2022-11-21T05:59:48;47.45;;;23.00;;
53857;SDS011;39763;51.188;6.690;2022-11-21T06:01:20;50.13;;;24.73;;
53857;SDS011;39763;51.188;6.690;2022-11-21T06:03:12;48.60;;;23.25;;
53857;SDS011;39763;51.188;6.690;2022-11-21T06:05:00;47.30;;;23.98;;
53857;SDS011;39763;51.188;6.690;2022-11-21T06:06:32;47.65;;;23.65;;
53857;SDS011;39763;51.188;6.690;2022-11-21T06:08:04;46.28;;;24.13;;
53857;SDS011;39763;51.188;6.690;2022-11-21T06:09:36;47.33;;;23.33;;
53857;SDS011;39763;51.188;6.690;2022-11-21T06:11:08;49.15;;;22.48;;
53857;SDS011;39763;51.188;6.690;2022-11-21T06:12:41;47.85;;;22.92;;
53857;SDS011;39763;51.188;6.690;2022-11-21T06:14:13;47.90;;;23.90;;
53857;SDS011;39763;51.188;6.690;2022-11-21T06:15:44;53.47;;;23.05;;
53857;SDS011;39763;51.188;6.690;2022-11-21T06:17:16;48.80;;;24.25;;
53857;SDS011;39763;51.188;6.690;2022-11-21T06:18:50;50.72;;;23.83;;
53857;SDS011;39763;51.188;6.690;2022-11-21T06:20:28;48.58;;;24.48;;
53857;SDS011;39763;51.188;6.690;2022-11-21T06:22:00;45.70;;;24.08;;
53857;SDS011;39763;51.188;6.690;2022-11-21T06:23:32;54.85;;;25.60;;
53857;SDS011;39763;51.188;6.690;2022-11-21T06:25:05;49.78;;;24.15;;
53857;SDS011;39763;51.188;6.690;2022-11-21T06:26:37;56.20;;;25.05;;
53857;SDS011;39763;51.188;6.690;2022-11-21T06:28:09;52.50;;;24.42;;
53857;SDS011;39763;51.188;6.690;2022-11-21T06:29:41;55.15;;;25.13;;
53857;SDS011;39763;51.188;6.690;2022-11-21T06:31:13;52.80;;;25.73;;
53857;SDS011;39763;51.188;6.690;2022-11-21T06:32:46;50.58;;;24.42;;
53857;SDS011;39763;51.188;6.690;2022-11-21T06:34:19;53.65;;;24.77;;
53857;SDS011;39763;51.188;6.690;2022-11-21T06:35:51;50.92;;;25.40;;
53857;SDS011;39763;51.188;6.690;2022-11-21T06:37:23;50.50;;;24.08;;
53857;SDS011;39763;51.188;6.690;2022-11-21T06:38:54;53.67;;;24.05;;
53857;SDS011;39763;51.188;6.690;2022-11-21T06:40:26;49.65;;;25.95;;
53857;SDS011;39763;51.188;6.690;2022-11-21T06:41:58;47.78;;;23.38;;
53857;SDS011;39763;51.188;6.690;2022-11-21T06:43:31;49.05;;;24.17;;
53857;SDS011;39763;51.188;6.690;2022-11-21T06:45:03;49.83;;;23.02;;
53857;SDS011;39763;51.188;6.690;2022-11-21T06:46:35;50.30;;;24.17;;
53857;SDS011;39763;51.188;6.690;2022-11-21T06:48:07;51.00;;;23.70;;
53857;SDS011;39763;51.188;6.690;2022-11-21T06:49:40;45.53;;;22.30;;
53857;SDS011;39763;51.188;6.690;2022-11-21T06:51:13;42.42;;;22.48;;
53857;SDS011;39763;51.188;6.690;2022-11-21T06:52:47;48.80;;;22.42;;
53857;SDS011;39763;51.188;6.690;2022-11-21T06:54:19;45.08;;;22.27;;
53857;SDS011;39763;51.188;6.690;2022-11-21T06:55:50;39.55;;;21.60;;
53857;SDS011;39763;51.188;6.690;2022-11-21T06:57:22;45.47;;;21.98;;
53857;SDS011;39763;51.188;6.690;2022-11-21T06:58:54;49.95;;;22.70;;
53857;SDS011;39763;51.188;6.690;2022-11-21T07:00:27;39.78;;;20.42;;
53857;SDS011;39763;51.188;6.690;2022-11-21T07:01:59;41.42;;;20.38;;
53857;SDS011;39763;51.188;6.690;2022-11-21T07:03:30;35.50;;;18.05;;
53857;SDS011;39763;51.188;6.690;2022-11-21T07:05:04;36.20;;;18.08;;
53857;SDS011;39763;51.188;6.690;2022-11-21T07:06:36;41.47;;;19.33;;
53857;SDS011;39763;51.188;6.690;2022-11-21T07:08:08;35.15;;;17.00;;
53857;SDS011;39763;51.188;6.690;2022-11-21T07:09:43;30.98;;;17.25;;
53857;SDS011;39763;51.188;6.690;2022-11-21T07:11:18;36.30;;;17.70;;
53857;SDS011;39763;51.188;6.690;2022-11-21T07:12:56;30.00;;;15.73;;
53857;SDS011;39763;51.188;6.690;2022-11-21T07:14:47;33.88;;;16.58;;
53857;SDS011;39763;51.188;6.690;2022-11-21T07:16:19;29.13;;;14.23;;
53857;SDS011;39763;51.188;6.690;2022-11-21T07:17:51;31.92;;;15.85;;
53857;SDS011;39763;51.188;6.690;2022-11-21T07:19:22;30.90;;;16.02;;
53857;SDS011;39763;51.188;6.690;2022-11-21T07:20:57;30.33;;;16.45;;
53857;SDS011;39763;51.188;6.690;2022-11-21T07:22:29;26.38;;;14.30;;
53857;SDS011;39763;51.188;6.690;2022-11-21T07:24:01;25.48;;;13.57;;
53857;SDS011;39763;51.188;6.690;2022-11-21T07:25:33;26.88;;;13.38;;
53857;SDS011;39763;51.188;6.690;2022-11-21T07:27:07;27.88;;;13.45;;
53857;SDS011;39763;51.188;6.690;2022-11-21T07:28:38;24.60;;;12.82;;
53857;SDS011;39763;51.188;6.690;2022-11-21T07:30:11;24.60;;;12.63;;
53857;SDS011;39763;51.188;6.690;2022-11-21T07:31:43;21.77;;;11.68;;
53857;SDS011;39763;51.188;6.690;2022-11-21T07:33:15;25.85;;;13.50;;
53857;SDS011;39763;51.188;6.690;2022-11-21T07:34:47;21.05;;;11.93;;
53857;SDS011;39763;51.188;6.690;2022-11-21T07:36:20;23.13;;;11.85;;
53857;SDS011;39763;51.188;6.690;2022-11-21T07:37:51;20.50;;;10.98;;
53857;SDS011;39763;51.188;6.690;2022-11-21T07:39:24;22.65;;;11.63;;
53857;SDS011;39763;51.188;6.690;2022-11-21T07:40:55;21.20;;;11.30;;
53857;SDS011;39763;51.188;6.690;2022-11-21T07:42:27;17.35;;;10.27;;
53857;SDS011;39763;51.188;6.690;2022-11-21T07:44:00;19.15;;;10.57;;
53857;SDS011;39763;51.188;6.690;2022-11-21T07:45:31;18.65;;;10.82;;
53857;SDS011;39763;51.188;6.690;2022-11-21T07:47:04;20.10;;;11.13;;
53857;SDS011;39763;51.188;6.690;2022-11-21T07:48:35;19.52;;;10.82;;
53857;SDS011;39763;51.188;6.690;2022-11-21T07:50:08;18.00;;;10.07;;
53857;SDS011;39763;51.188;6.690;2022-11-21T07:51:42;18.38;;;10.15;;
53857;SDS011;39763;51.188;6.690;2022-11-21T07:53:14;18.38;;;10.13;;
53857;SDS011;39763;51.188;6.690;2022-11-21T07:54:46;17.88;;;11.20;;
53857;SDS011;39763;51.188;6.690;2022-11-21T07:56:17;19.48;;;10.07;;
53857;SDS011;39763;51.188;6.690;2022-11-21T07:57:56;17.15;;;9.95;;
53857;SDS011;39763;51.188;6.690;2022-11-21T07:59:28;15.65;;;9.27;;
53857;SDS011;39763;51.188;6.690;2022-11-21T08:01:01;21.42;;;11.23;;
53857;SDS011;39763;51.188;6.690;2022-11-21T08:02:34;20.58;;;11.20;;
53857;SDS011;39763;51.188;6.690;2022-11-21T08:04:06;18.52;;;9.55;;
53857;SDS011;39763;51.188;6.690;2022-11-21T08:05:38;19.90;;;10.60;;
53857;SDS011;39763;51.188;6.690;2022-11-21T08:07:12;20.58;;;11.52;;
53857;SDS011;39763;51.188;6.690;2022-11-21T08:08:44;24.40;;;13.00;;
53857;SDS011;39763;51.188;6.690;2022-11-21T08:10:16;20.65;;;11.15;;
53857;SDS011;39763;51.188;6.690;2022-11-21T08:11:48;20.58;;;9.90;;
53857;SDS011;39763;51.188;6.690;2022-11-21T08:13:20;17.60;;;10.27;;
53857;SDS011;39763;51.188;6.690;2022-11-21T08:14:52;16.13;;;9.50;;
53857;SDS011;39763;51.188;6.690;2022-11-21T08:16:23;19.02;;;10.82;;
53857;SDS011;39763;51.188;6.690;2022-11-21T08:17:58;18.45;;;10.25;;
53857;SDS011;39763;51.188;6.690;2022-11-21T08:19:36;16.73;;;9.52;;
53857;SDS011;39763;51.188;6.690;2022-11-21T08:21:08;19.63;;;8.93;;
53857;SDS011;39763;51.188;6.690;2022-11-21T08:22:41;18.45;;;10.20;;
53857;SDS011;39763;51.188;6.690;2022-11-21T08:24:13;17.35;;;9.38;;
53857;SDS011;39763;51.188;6.690;2022-11-21T08:25:45;19.48;;;9.73;;
53857;SDS011;39763;51.188;6.690;2022-11-21T08:27:17;14.80;;;8.40;;
53857;SDS011;39763;51.188;6.690;2022-11-21T08:28:51;14.90;;;7.65;;
53857;SDS011;39763;51.188;6.690;2022-11-21T08:30:30;14.95;;;8.13;;
53857;SDS011;39763;51.188;6.690;2022-11-21T08:32:02;13.40;;;8.63;;
53857;SDS011;39763;51.188;6.690;2022-11-21T08:33:34;13.77;;;6.90;;
53857;SDS011;39763;51.188;6.690;2022-11-21T08:35:06;16.17;;;7.40;;
53857;SDS011;39763;51.188;6.690;2022-11-21T08:36:38;14.23;;;7.70;;
53857;SDS011;39763;51.188;6.690;2022-11-21T08:38:11;14.82;;;8.07;;
53857;SDS011;39763;51.188;6.690;2022-11-21T08:39:42;14.60;;;7.95;;
53857;SDS011;39763;51.188;6.690;2022-11-21T08:41:14;14.57;;;7.68;;
53857;SDS011;39763;51.188;6.690;2022-11-21T08:43:05;16.35;;;7.97;;
53857;SDS011;39763;51.188;6.690;2022-11-21T08:44:38;13.90;;;7.85;;
53857;SDS011;39763;51.188;6.690;2022-11-21T08:46:09;17.75;;;7.82;;
53857;SDS011;39763;51.188;6.690;2022-11-21T08:47:41;15.00;;;7.97;;
53857;SDS011;39763;51.188;6.690;2022-11-21T08:49:13;14.35;;;7.50;;
53857;SDS011;39763;51.188;6.690;2022-11-21T08:50:45;15.98;;;7.82;;
53857;SDS011;39763;51.188;6.690;2022-11-21T08:52:17;15.05;;;7.82;;
53857;SDS011;39763;51.188;6.690;2022-11-21T08:53:50;15.52;;;8.05;;
53857;SDS011;39763;51.188;6.690;2022-11-21T08:55:22;15.88;;;8.30;;
53857;SDS011;39763;51.188;6.690;2022-11-21T08:56:53;16.00;;;8.20;;
53857;SDS011;39763;51.188;6.690;2022-11-21T08:58:25;17.05;;;8.10;;
53857;SDS011;39763;51.188;6.690;2022-11-21T08:59:57;15.25;;;8.07;;
53857;SDS011;39763;51.188;6.690;2022-11-21T09:01:28;16.27;;;7.95;;
53857;SDS011;39763;51.188;6.690;2022-11-21T09:03:02;15.77;;;7.85;;
53857;SDS011;39763;51.188;6.690;2022-11-21T09:04:34;20.60;;;10.40;;
53857;SDS011;39763;51.188;6.690;2022-11-21T09:06:06;15.30;;;8.52;;
53857;SDS011;39763;51.188;6.690;2022-11-21T09:07:38;16.08;;;8.80;;
53857;SDS011;39763;51.188;6.690;2022-11-21T09:09:12;18.15;;;8.85;;
53857;SDS011;39763;51.188;6.690;2022-11-21T09:10:44;20.08;;;8.73;;
53857;SDS011;39763;51.188;6.690;2022-11-21T09:12:16;17.25;;;8.95;;